Time;durP1;ratioP1;P1;durP2;ratioP2;P2;SDS_P1;SDS_P2;PMS_P1;PMS_P2;Temp;Humidity;BMP_temperature;BMP_pressure;BME280_temperature;BME280_humidity;BME280_pressure;Samples;Min_cycle;Max_cycle;Signal;HPM_P1;HPM_P2
2022/06/01 00:00:26;;;;;;;8.00;7.80;;;;;;;10.40;100.00;65255.88;5116676;28;20205;-73
2022/06/01 00:02:53;;;;;;;7.93;7.73;;;;;;;10.40;100.00;65258.47;5116522;28;20185;-73
2022/06/01 00:05:19;;;;;;;8.77;8.50;;;;;;;10.40;100.00;65261.06;5115208;28;20220;-73
2022/06/01 00:07:47;;;;;;;9.17;8.97;;;;;;;10.34;100.00;65247.19;5115311;28;20217;-73
2022/06/01 00:10:14;;;;;;;10.17;9.77;;;;;;;10.29;100.00;65241.13;5116300;28;20304;-73
2022/06/01 00:12:41;;;;;;;8.63;8.37;;;;;;;10.30;100.00;65242.22;5116894;28;20220;-73
2022/06/01 00:15:09;;;;;;;10.27;9.87;;;;;;;10.26;100.00;65238.34;5116040;28;20240;-73
2022/06/01 00:17:36;;;;;;;9.87;9.40;;;;;;;10.29;100.00;65243.72;5114173;28;20227;-73
2022/06/01 00:20:03;;;;;;;9.00;8.70;;;;;;;;;;5115332;28;20233;-73
2022/06/01 00:22:29;;;;;;;10.10;9.67;;;;;;;10.23;100.00;65237.06;5116670;28;20227;-73
2022/06/01 00:24:56;;;;;;;9.80;9.17;;;;;;;10.27;100.00;65239.44;5116645;28;20220;-73
2022/06/01 00:27:23;;;;;;;8.27;8.07;;;;;;;10.25;100.00;65236.69;5114990;28;20224;-73
2022/06/01 00:29:49;;;;;;;8.20;8.00;;;;;;;;;;5114830;28;20243;-73
2022/06/01 00:32:16;;;;;;;8.93;8.63;;;;;;;;;;5115218;28;20277;-73
2022/06/01 00:34:43;;;;;;;8.63;8.40;;;;;;;10.26;100.00;65245.56;5115815;28;20247;-73
2022/06/01 00:37:09;;;;;;;9.23;8.57;;;;;;;;;;5115853;28;20212;-73
2022/06/01 00:39:37;;;;;;;11.07;10.40;;;;;;;10.21;100.00;65243.13;5113749;28;20626;-72
2022/06/01 00:42:12;;;;;;;10.70;10.10;;;;;;;10.12;100.00;65231.13;5116024;28;20538;-73
2022/06/01 00:44:39;;;;;;;9.33;8.93;;;;;;;;;;5112152;28;20224;-72
2022/06/01 00:47:06;;;;;;;9.13;8.73;;;;;;;10.08;100.00;65218.38;5115695;28;20213;-73
2022/06/01 00:49:33;;;;;;;9.57;9.13;;;;;;;;;;5113641;28;20235;-72
2022/06/01 00:52:00;;;;;;;11.33;10.47;;;;;;;10.06;100.00;65218.75;5115399;28;20253;-72
2022/06/01 00:54:27;;;;;;;10.60;9.97;;;;;;;10.08;100.00;65220.97;5113483;28;20244;-72
2022/06/01 00:57:00;;;;;;;11.27;10.37;;;;;;;10.03;100.00;65215.97;5115448;28;20209;-72
2022/06/01 00:59:33;;;;;;;12.20;11.43;;;;;;;10.09;100.00;65225.22;5115156;28;20535;-72
2022/06/01 01:02:01;;;;;;;11.13;10.53;;;;;;;10.05;100.00;65217.63;5113678;28;20231;-72
2022/06/01 01:04:34;;;;;;;12.17;11.43;;;;;;;10.05;100.00;65218.19;5115264;28;20184;-72
2022/06/01 01:07:03;;;;;;;11.10;10.43;;;;;;;;;;5114748;28;20571;-72
2022/06/01 01:09:30;;;;;;;11.37;10.33;;;;;;;10.04;100.00;65214.50;5114193;28;20216;-71
2022/06/01 01:12:01;;;;;;;11.07;10.37;;;;;;;;;;5115185;28;20227;-72
2022/06/01 01:14:30;;;;;;;11.47;10.73;;;;;;;10.07;100.00;65222.44;5115627;28;20232;-73
2022/06/01 01:16:57;;;;;;;11.83;11.07;;;;;;;;;;5115063;28;20717;-73
2022/06/01 01:19:46;;;;;;;11.43;10.73;;;;;;;10.13;100.00;65223.91;5115220;28;20216;-73
2022/06/01 01:22:31;;;;;;;11.77;11.00;;;;;;;10.17;100.00;65234.09;5107846;28;20596;-72
2022/06/01 01:25:10;;;;;;;11.27;10.43;;;;;;;;;;5115060;28;20250;-72
2022/06/01 01:27:36;;;;;;;12.30;11.57;;;;;;;10.16;100.00;65222.06;5115003;28;20274;-72
2022/06/01 01:30:23;;;;;;;12.10;10.93;;;;;;;10.14;100.00;65228.19;5114216;28;20225;-72
2022/06/01 01:32:49;;;;;;;12.37;11.67;;;;;;;;;;5114125;28;20630;-72
2022/06/01 01:35:16;;;;;;;12.73;12.00;;;;;;;10.06;100.00;65221.88;5114002;28;20291;-72
2022/06/01 01:37:43;;;;;;;11.60;10.93;;;;;;;10.10;100.00;65223.75;5113345;28;20224;-72
2022/06/01 01:40:10;;;;;;;12.33;11.53;;;;;;;10.12;100.00;65225.41;5112502;28;20228;-72
2022/06/01 01:42:36;;;;;;;14.23;12.53;;;;;;;10.14;100.00;65220.41;5112158;28;20216;-72
2022/06/01 01:45:25;;;;;;;11.73;11.13;;;;;;;10.11;100.00;65222.25;5115356;28;20555;-72
2022/06/01 01:47:52;;;;;;;12.07;11.47;;;;;;;10.12;100.00;65222.81;5113775;28;20192;-72
2022/06/01 01:50:21;;;;;;;13.27;12.10;;;;;;;10.14;100.00;65225.59;5113529;28;20240;-72
2022/06/01 01:52:47;;;;;;;12.63;11.93;;;;;;;10.11;100.00;65222.25;5113439;28;20658;-72
2022/06/01 01:55:19;;;;;;;11.97;11.37;;;;;;;;;;5114577;28;20248;-72
2022/06/01 01:58:16;;;;;;;12.87;12.07;;;;;;;10.09;100.00;65222.63;5114682;28;20200;-72
2022/06/01 02:00:47;;;;;;;16.07;14.57;;;;;;;10.00;100.00;65210.06;5112974;28;20256;-71
2022/06/01 02:03:23;;;;;;;15.73;14.27;;;;;;;;;;5114547;28;20567;-72
2022/06/01 02:06:08;;;;;;;15.27;14.20;;;;;;;10.00;100.00;65204.88;5114145;28;20740;-72
2022/06/01 02:08:55;;;;;;;16.13;14.63;;;;;;;;;;5114712;28;20212;-72
2022/06/01 02:14:18;;;;;;;15.97;14.63;;;;;;;;;;5114042;28;20218;-72
2022/06/01 02:16:47;;;;;;;15.40;14.40;;;;;;;;;;5113991;28;20280;-73
2022/06/01 02:19:20;;;;;;;15.83;14.30;;;;;;;9.93;100.00;65197.13;5114232;28;20202;-73
2022/06/01 02:21:47;;;;;;;15.40;14.07;;;;;;;9.90;100.00;65199.53;5113163;28;20567;-73
2022/06/01 02:24:13;;;;;;;14.43;13.47;;;;;;;9.86;100.00;65194.56;5114195;28;20211;-73
2022/06/01 02:26:39;;;;;;;17.97;16.40;;;;;;;;;;5113889;28;20226;-73
2022/06/01 02:29:11;;;;;;;16.80;15.33;;;;;;;9.84;100.00;65200.66;5111995;28;20228;-73
2022/06/01 02:31:38;;;;;;;17.63;15.90;;;;;;;;;;5112777;28;20229;-72
2022/06/01 02:34:08;;;;;;;15.93;14.63;;;;;;;9.79;100.00;65195.16;5080182;28;20224;-73
2022/06/01 02:36:37;;;;;;;17.57;16.07;;;;;;;9.74;100.00;65183.88;5093484;28;20528;-73
2022/06/01 02:39:05;;;;;;;15.97;14.67;;;;;;;;;;5105216;28;20226;-73
2022/06/01 02:44:16;;;;;;;18.60;16.90;;;;;;;;;;5114271;28;20201;-73
2022/06/01 02:46:43;;;;;;;16.27;14.90;;;;;;;9.61;100.00;65173.16;5113677;28;20175;-73
2022/06/01 02:49:09;;;;;;;16.30;14.80;;;;;;;9.58;100.00;65167.25;5113576;28;20224;-73
2022/06/01 02:51:36;;;;;;;17.47;15.90;;;;;;;9.54;100.00;65155.03;5110429;28;20250;-72
2022/06/01 02:54:02;;;;;;;24.07;18.40;;;;;;;;;;5112489;28;20721;-72
2022/06/01 02:56:28;;;;;;;17.60;16.13;;;;;;;9.55;100.00;65181.50;5113463;28;20225;-72
2022/06/01 02:58:56;;;;;;;18.70;17.10;;;;;;;9.56;100.00;65165.03;5113532;28;20249;-72
2022/06/01 03:01:22;;;;;;;17.43;15.83;;;;;;;9.52;100.00;65158.03;5112391;28;20234;-72
2022/06/01 03:03:49;;;;;;;19.43;16.50;;;;;;;9.50;100.00;65161.00;5113435;28;20244;-72
2022/06/01 03:06:15;;;;;;;17.60;16.20;;;;;;;9.47;100.00;65155.06;5112734;28;20219;-74
2022/06/01 03:08:42;;;;;;;18.07;16.53;;;;;;;9.48;100.00;65163.41;5113877;28;20220;-74
2022/06/01 03:11:09;;;;;;;18.10;16.33;;;;;;;9.41;100.00;65148.44;5111457;28;20671;-72
2022/06/01 03:13:35;;;;;;;17.27;15.77;;;;;;;9.40;100.00;65147.31;5113426;28;20527;-73
2022/06/01 03:16:02;;;;;;;18.53;17.03;;;;;;;9.40;100.00;65162.88;5113299;28;20232;-73
2022/06/01 03:18:31;;;;;;;20.00;17.93;;;;;;;;;;5113341;28;20223;-73
2022/06/01 03:20:59;;;;;;;19.23;17.43;;;;;;;9.37;100.00;65154.38;5112467;28;20237;-73
2022/06/01 03:23:26;;;;;;;19.17;17.33;;;;;;;9.36;100.00;65142.91;5111738;28;20212;-73
2022/06/01 03:25:52;;;;;;;17.33;15.87;;;;;;;;;;5112320;28;20227;-72
2022/06/01 03:28:19;;;;;;;20.23;18.03;;;;;;;9.29;100.00;65140.34;5113282;28;20196;-73
2022/06/01 03:30:46;;;;;;;18.33;16.47;;;;;;;9.25;100.00;65120.34;5112169;28;20212;-73
2022/06/01 03:33:17;;;;;;;18.17;16.47;;;;;;;9.26;100.00;65129.78;5113508;28;20217;-73
2022/06/01 03:35:43;;;;;;;18.77;17.00;;;;;;;9.23;100.00;65139.41;5113399;28;20232;-73
2022/06/01 03:38:10;;;;;;;20.07;18.07;;;;;;;9.26;100.00;65131.81;5111664;28;20222;-72
2022/06/01 03:40:40;;;;;;;22.23;18.93;;;;;;;9.26;100.00;65134.41;5110874;28;20232;-72
2022/06/01 03:43:07;;;;;;;20.93;18.67;;;;;;;;;;5105479;28;20222;-73
2022/06/01 03:48:20;;;;;;;25.00;20.83;;;;;;;9.28;100.00;65132.00;5113414;28;20194;-73
2022/06/01 03:50:47;;;;;;;26.03;21.67;;;;;;;9.28;100.00;65132.00;5112971;28;20244;-72
2022/06/01 03:53:14;;;;;;;23.97;21.27;;;;;;;;;;5115027;28;20218;-72
2022/06/01 03:55:42;;;;;;;24.37;21.63;;;;;;;9.26;100.00;65131.81;5116592;28;20249;-72
2022/06/01 03:58:13;;;;;;;22.00;19.80;;;;;;;9.21;100.00;65123.69;5116670;28;20210;-72
2022/06/01 04:00:39;;;;;;;23.30;18.90;;;;;;;9.21;100.00;65123.69;5115710;28;20213;-72
2022/06/01 04:03:06;;;;;;;19.60;17.73;;;;;;;9.15;100.00;65133.16;5113911;28;20182;-72
2022/06/01 04:05:32;;;;;;;21.30;18.53;;;;;;;;;;5116506;28;20194;-72
2022/06/01 04:07:59;;;;;;;28.87;19.93;;;;;;;9.16;100.00;65123.34;5116740;28;20213;-73
2022/06/01 04:10:25;;;;;;;19.93;17.97;;;;;;;9.22;100.00;65124.81;5114384;28;20241;-72
2022/06/01 04:12:57;;;;;;;21.67;18.57;;;;;;;9.22;100.00;65130.56;5116352;28;20174;-72
2022/06/01 04:15:24;;;;;;;19.07;17.37;;;;;;;9.19;100.00;65131.84;5115488;28;20238;-72
2022/06/01 04:17:50;;;;;;;37.77;21.07;;;;;;;9.33;100.00;65145.31;5113802;28;20243;-72
2022/06/01 04:20:17;;;;;;;28.83;22.13;;;;;;;9.52;100.00;65167.84;5115839;28;20205;-72
2022/06/01 04:22:44;;;;;;;27.33;21.83;;;;;;;9.64;100.00;65171.31;5115882;28;20234;-73
2022/06/01 04:25:13;;;;;;;29.20;21.97;;;;;;;9.71;100.00;65185.72;5098326;28;20231;-73
2022/06/01 04:27:40;;;;;;;29.23;20.33;;;;;;;9.73;100.00;65193.69;5116286;28;20565;-73
2022/06/01 04:30:07;;;;;;;32.50;22.60;;;;;;;;;;5116230;28;20242;-73
2022/06/01 04:32:34;;;;;;;59.53;22.47;;;;;;;9.89;100.00;65197.88;5114812;28;20240;-73
2022/06/01 04:35:02;;;;;;;29.67;23.33;;;;;;;10.00;100.00;65204.31;5116096;28;20623;-73
2022/06/01 04:37:29;;;;;;;26.67;20.63;;;;;;;10.03;100.00;65215.97;5116381;28;20227;-73
2022/06/01 04:39:55;;;;;;;23.53;21.27;;;;;;;10.09;100.00;65224.66;5116192;28;20211;-72
2022/06/01 04:42:22;;;;;;;27.17;21.63;;;;;;;10.14;100.00;65225.59;5113344;28;20227;-72
2022/06/01 04:44:49;;;;;;;26.60;22.20;;;;;;;10.16;100.00;65235.56;5113871;28;20222;-72
2022/06/01 04:47:15;;;;;;;29.80;21.93;;;;;;;10.18;100.00;65237.22;5115687;28;20222;-73
2022/06/01 04:49:42;;;;;;;24.80;21.80;;;;;;;10.14;100.00;65230.78;5112796;28;20635;-71
2022/06/01 04:52:08;;;;;;;23.93;20.93;;;;;;;;;;5115401;28;20199;-73
2022/06/01 04:54:35;;;;;;;24.67;21.97;;;;;;;10.18;100.00;65232.59;5113970;28;20620;-72
2022/06/01 04:57:01;;;;;;;37.87;23.33;;;;;;;;;;5114040;28;20250;-72
2022/06/01 04:59:27;;;;;;;28.87;21.63;;;;;;;10.14;100.00;65225.00;5114686;28;20237;-72
2022/06/01 05:01:54;;;;;;;25.73;22.33;;;;;;;;;;5113597;28;20205;-73
2022/06/01 05:04:20;;;;;;;33.27;23.27;;;;;;;;;;5114795;28;20258;-72
2022/06/01 05:06:46;;;;;;;27.67;22.77;;;;;;;10.15;100.00;65228.72;5096994;28;20197;-73
2022/06/01 05:09:13;;;;;;;31.47;22.80;;;;;;;;;;5114234;28;20204;-73
2022/06/01 05:11:39;;;;;;;28.50;23.57;;;;;;;10.22;100.00;65228.16;5114237;28;20249;-72
2022/06/01 05:14:06;;;;;;;31.13;23.07;;;;;;;10.23;100.00;65226.69;5115380;28;20189;-72
2022/06/01 05:16:32;;;;;;;48.70;24.50;;;;;;;;;;5115292;28;20610;-72
2022/06/01 05:18:59;;;;;;;31.27;24.27;;;;;;;10.35;100.00;65253.47;5112572;28;20648;-72
2022/06/01 05:21:26;;;;;;;26.77;22.80;;;;;;;10.31;100.00;65245.91;5114925;28;20244;-73
2022/06/01 05:23:52;;;;;;;33.37;24.07;;;;;;;10.33;100.00;65245.53;5114164;28;20220;-73
2022/06/01 05:26:19;;;;;;;33.87;24.93;;;;;;;10.49;100.00;65265.84;5113889;28;20196;-73
2022/06/01 05:28:45;;;;;;;31.20;23.77;;;;;;;10.51;100.00;65275.88;5114000;28;20243;-73
2022/06/01 05:31:13;;;;;;;37.27;24.00;;;;;;;10.57;100.00;65277.31;5114720;28;20243;-73
2022/06/01 05:33:45;;;;;;;39.27;23.67;;;;;;;10.62;100.00;65285.44;5114766;28;20216;-73
2022/06/01 05:36:13;;;;;;;32.93;24.57;;;;;;;10.64;100.00;65279.31;5114976;28;20229;-73
2022/06/01 05:38:40;;;;;;;44.37;26.77;;;;;;;;;;5113544;28;20197;-72
2022/06/01 05:41:07;;;;;;;32.23;24.10;;;;;;;10.68;100.00;65284.31;5114757;28;20241;-72
2022/06/01 05:43:34;;;;;;;45.17;25.67;;;;;;;10.77;100.00;65296.34;5114577;28;20220;-73
2022/06/01 05:46:02;;;;;;;40.57;25.73;;;;;;;10.79;100.00;65303.19;5114668;28;20543;-74
2022/06/01 05:48:29;;;;;;;38.53;23.97;;;;;;;10.88;100.00;65305.38;5112528;28;20219;-73
2022/06/01 05:50:59;;;;;;;35.03;23.43;;;;;;;10.90;100.00;65321.13;5113348;28;20224;-73
2022/06/01 05:53:25;;;;;;;28.13;22.57;;;;;;;10.95;100.00;65318.91;5112642;28;20211;-73
2022/06/01 05:55:51;;;;;;;37.63;25.20;;;;;;;10.99;100.00;65325.38;5112510;28;20246;-73
2022/06/01 05:58:18;;;;;;;29.20;23.30;;;;;;;;;;5114673;28;20283;-73
2022/06/01 06:00:47;;;;;;;30.20;23.60;;;;;;;11.15;100.00;65337.94;5113020;28;20236;-73
2022/06/01 06:03:14;;;;;;;35.87;23.60;;;;;;;11.15;100.00;65337.38;5112480;28;20280;-73
2022/06/01 06:08:34;;;;;;;31.23;23.37;;;;;;;;;;5114055;28;20177;-73
2022/06/01 06:11:00;;;;;;;35.47;24.00;;;;;;;11.33;100.00;65348.97;5112285;28;20304;-73
2022/06/01 06:13:26;;;;;;;26.50;22.53;;;;;;;11.39;100.00;65360.81;5113886;28;20193;-74
2022/06/01 06:15:53;;;;;;;28.93;23.17;;;;;;;11.49;100.00;65371.91;5113903;28;20632;-74
2022/06/01 06:18:19;;;;;;;28.83;22.07;;;;;;;;;;5094463;28;20229;-73
2022/06/01 06:20:46;;;;;;;27.87;21.87;;;;;;;;;;5113742;28;20284;-73
2022/06/01 06:23:13;;;;;;;26.50;22.03;;;;;;;11.52;100.00;65375.81;5114886;28;20193;-74
2022/06/01 06:25:40;;;;;;;29.37;20.77;;;;;;;11.63;100.00;65381.69;5112943;28;20189;-74
2022/06/01 06:28:07;;;;;;;26.77;20.13;;;;;;;;;;5111837;28;20193;-73
2022/06/01 06:30:35;;;;;;;21.10;18.67;;;;;;;11.66;100.00;65385.03;5110280;28;20291;-72
2022/06/01 06:33:02;;;;;;;20.97;18.80;;;;;;;11.65;100.00;65397.47;5107458;28;20685;-72
2022/06/01 06:35:28;;;;;;;20.90;17.47;;;;;;;11.59;100.00;65393.41;5113657;28;20220;-72
2022/06/01 06:37:55;;;;;;;24.70;18.73;;;;;;;11.64;100.00;65383.34;5109712;28;20225;-72
2022/06/01 06:40:21;;;;;;;21.73;18.63;;;;;;;11.79;100.00;65404.66;5103784;28;20220;-72
2022/06/01 06:42:48;;;;;;;20.43;18.07;;;;;;;;;;5113509;28;20224;-72
2022/06/01 06:45:14;;;;;;;22.87;17.87;;;;;;;;;;5110966;28;20189;-72
2022/06/01 06:47:42;;;;;;;21.37;16.07;;;;;;;12.04;100.00;65434.44;5111633;28;20267;-72
2022/06/01 06:50:09;;;;;;;18.03;16.30;;;;;;;;;;5112728;28;20232;-72
2022/06/01 06:52:35;;;;;;;17.30;15.40;;;;;;;12.10;100.00;65433.84;5113451;28;20663;-72
2022/06/01 06:55:02;;;;;;;19.47;14.43;;;;;;;;;;5113790;28;20208;-73
2022/06/01 06:57:28;;;;;;;25.40;14.57;;;;;;;12.18;100.00;65449.44;5113316;28;20291;-72
2022/06/01 06:59:55;;;;;;;24.70;15.17;;;;;;;12.30;100.00;65465.38;5113414;28;20706;-72
2022/06/01 07:02:21;;;;;;;21.10;15.57;;;;;;;12.27;100.00;65457.38;5113558;28;20298;-72
2022/06/01 07:04:47;;;;;;;20.37;13.03;;;;;;;;;;5113409;28;20216;-72
2022/06/01 07:07:15;;;;;;;15.97;13.87;;;;;;;12.42;100.00;65467.69;5113384;28;20187;-72
2022/06/01 07:09:42;;;;;;;18.97;14.53;;;;;;;;;;5113443;28;20216;-71
2022/06/01 07:12:12;;;;;;;17.03;15.43;;;;;;;12.26;100.00;65460.91;5113362;28;20268;-72
2022/06/01 07:14:39;;;;;;;26.57;15.30;;;;;;;12.38;100.00;65469.59;5114005;28;20216;-72
2022/06/01 07:17:06;;;;;;;16.33;14.83;;;;;;;12.29;100.00;65461.66;5113808;28;20228;-72
2022/06/01 07:19:33;;;;;;;16.33;14.33;;;;;;;12.44;100.00;65478.31;5113774;28;20184;-71
2022/06/01 07:21:59;;;;;;;16.10;14.40;;;;;;;;;;5113547;28;20208;-72
2022/06/01 07:24:26;;;;;;;15.67;14.07;;;;;;;12.37;99.96;65471.09;5115384;28;20710;-71
2022/06/01 07:26:52;;;;;;;15.60;14.03;;;;;;;;;;5117323;28;20556;-72
2022/06/01 07:29:19;;;;;;;15.57;14.27;;;;;;;12.43;100.00;65487.03;5117730;28;20587;-72
2022/06/01 07:31:46;;;;;;;16.73;14.93;;;;;;;;;;5117449;28;20181;-72
2022/06/01 07:34:13;;;;;;;15.83;14.53;;;;;;;;;;5117281;28;20234;-72
2022/06/01 07:36:39;;;;;;;16.47;15.07;;;;;;;;;;5116900;28;20372;-71
2022/06/01 07:44:39;;;;;;;15.13;13.93;;;;;;;12.90;98.68;65528.81;5116878;28;20211;-72
2022/06/01 07:47:07;;;;;;;16.23;14.80;;;;;;;;;;5116946;28;20230;-72
2022/06/01 07:49:53;;;;;;;17.30;15.63;;;;;;;13.15;97.29;65560.69;5117009;28;20214;-72
2022/06/01 07:52:39;;;;;;;18.67;14.97;;;;;;;13.36;97.84;65575.66;5116461;28;20208;-72
2022/06/01 07:55:06;;;;;;;15.23;14.03;;;;;;;13.32;97.15;65574.38;5116669;28;20216;-72
2022/06/01 07:57:32;;;;;;;13.57;12.57;;;;;;;13.27;95.23;65560.44;5116761;28;20227;-72
2022/06/01 07:59:59;;;;;;;13.50;12.07;;;;;;;13.28;94.98;65566.78;5116430;28;20248;-72
2022/06/01 08:02:26;;;;;;;12.53;11.83;;;;;;;13.33;97.29;65575.50;5116546;28;20193;-73
2022/06/01 08:04:52;;;;;;;13.73;12.53;;;;;;;13.41;96.07;65576.00;5117042;28;20180;-72
2022/06/01 08:07:19;;;;;;;13.83;12.50;;;;;;;;;;5116389;28;20190;-72
2022/06/01 08:09:45;;;;;;;13.30;12.23;;;;;;;;;;5116554;28;20683;-71
2022/06/01 08:14:57;;;;;;;11.87;11.00;;;;;;;13.33;92.18;65574.94;5116253;28;20191;-72
2022/06/01 08:17:23;;;;;;;13.73;12.57;;;;;;;;;;5116148;28;20237;-72
2022/06/01 08:19:50;;;;;;;11.87;11.07;;;;;;;13.67;94.27;65604.34;5116664;28;20237;-72
2022/06/01 08:22:16;;;;;;;11.27;10.43;;;;;;;13.62;89.92;65604.56;5116683;28;20279;-72
2022/06/01 08:24:43;;;;;;;12.50;11.73;;;;;;;13.62;90.66;65604.00;5116360;28;20184;-72
2022/06/01 08:27:10;;;;;;;11.77;11.13;;;;;;;13.61;91.41;65605.50;5098006;28;20209;-71
2022/06/01 08:29:37;;;;;;;12.07;10.97;;;;;;;;;;5116198;28;20194;-71
2022/06/01 08:32:04;;;;;;;9.53;8.93;;;;;;;13.49;87.31;65590.66;5115995;28;20197;-71
2022/06/01 08:34:31;;;;;;;9.63;9.13;;;;;;;;;;5115927;28;20192;-72
2022/06/01 08:36:57;;;;;;;9.43;9.13;;;;;;;13.51;89.46;65594.94;5115772;28;20288;-72
2022/06/01 08:39:24;;;;;;;9.67;9.10;;;;;;;;;;5115795;28;20209;-71
2022/06/01 08:41:51;;;;;;;9.13;8.90;;;;;;;13.78;88.85;65622.34;5115751;28;20245;-72
2022/06/01 08:44:23;;;;;;;8.73;8.33;;;;;;;14.03;87.75;65651.63;5115713;28;20220;-72
2022/06/01 08:46:51;;;;;;;8.60;8.33;;;;;;;;;;5115667;28;20546;-72
2022/06/01 08:49:23;;;;;;;9.10;8.50;;;;;;;;;;5116234;28;20197;-72
2022/06/01 08:51:52;;;;;;;8.37;8.07;;;;;;;14.14;83.41;65663.31;5115547;28;20235;-71
2022/06/01 08:54:19;;;;;;;8.23;7.83;;;;;;;;;;5115861;28;20275;-71
2022/06/01 08:56:47;;;;;;;6.23;6.13;;;;;;;;;;5115761;28;20189;-72
2022/06/01 08:59:51;;;;;;;5.33;5.03;;;;;;;14.13;83.47;65670.56;5116027;28;20204;-72
2022/06/01 09:02:36;;;;;;;4.40;4.40;;;;;;;;;;5116032;28;20201;-72
2022/06/01 09:05:18;;;;;;;7.30;6.70;;;;;;;14.09;84.59;65658.31;5115329;28;20227;-71
2022/06/01 09:07:53;;;;;;;7.37;7.27;;;;;;;14.13;85.47;65662.19;5115623;28;20207;-72
2022/06/01 09:10:35;;;;;;;7.73;7.43;;;;;;;;;;5115401;28;20554;-71
2022/06/01 09:13:07;;;;;;;8.60;7.77;;;;;;;;;;5115473;28;20651;-71
2022/06/01 09:15:53;;;;;;;5.67;5.53;;;;;;;14.50;83.62;65703.38;5115195;28;20627;-72
2022/06/01 09:18:22;;;;;;;7.17;6.40;;;;;;;;;;5115195;28;20670;-71
2022/06/01 09:23:33;;;;;;;6.93;6.63;;;;;;;14.48;80.29;65701.13;5115588;28;20247;-71
2022/06/01 09:26:00;;;;;;;6.53;6.43;;;;;;;;;;5115019;28;20202;-72
2022/06/01 09:28:27;;;;;;;5.17;5.07;;;;;;;;;;5115144;28;20213;-71
2022/06/01 09:31:02;;;;;;;5.77;5.67;;;;;;;14.85;78.21;65733.34;5115089;28;20208;-71
2022/06/01 09:33:31;;;;;;;4.97;4.97;;;;;;;;;;5115064;28;20234;-72
2022/06/01 09:36:21;;;;;;;4.93;4.87;;;;;;;14.82;79.79;65735.25;5115363;28;20173;-71
2022/06/01 09:38:55;;;;;;;5.27;4.83;;;;;;;;;;5114731;28;20211;-71
2022/06/01 09:41:27;;;;;;;5.10;5.10;;;;;;;;;;5114607;28;20209;-72
2022/06/01 09:43:56;;;;;;;6.50;5.90;;;;;;;14.39;79.38;65691.09;5115196;28;20177;-72
2022/06/01 09:46:23;;;;;;;5.77;5.77;;;;;;;14.30;82.73;65679.06;5114671;28;20205;-72
2022/06/01 09:48:50;;;;;;;5.23;5.10;;;;;;;;;;5114612;28;20186;-72
2022/06/01 09:51:19;;;;;;;5.50;5.17;;;;;;;;;;5114241;28;20564;-71
2022/06/01 09:53:52;;;;;;;6.23;5.90;;;;;;;14.60;81.97;65713.94;5114450;28;20209;-71
2022/06/01 09:56:28;;;;;;;5.67;5.47;;;;;;;;;;5114352;28;20205;-71
2022/06/01 10:07:28;;;;;;;6.63;6.47;;;;;;;14.44;81.53;65699.28;5114485;28;20197;-71
2022/06/01 10:09:58;;;;;;;7.90;7.53;;;;;;;14.56;80.95;65709.47;5114167;28;20548;-71
2022/06/01 10:12:29;;;;;;;7.10;6.67;;;;;;;;;;5114111;28;20213;-71
2022/06/01 10:14:56;;;;;;;8.30;7.50;;;;;;;;;;5114088;28;20185;-71
2022/06/01 10:17:31;;;;;;;7.77;7.47;;;;;;;15.16;78.86;65766.72;5114241;28;20247;-71
2022/06/01 10:20:07;;;;;;;7.93;7.57;;;;;;;15.00;78.46;65747.44;5114245;28;20240;-71
2022/06/01 10:22:36;;;;;;;7.07;6.80;;;;;;;;;;5114196;28;20220;-71
2022/06/01 10:25:13;;;;;;;9.90;7.87;;;;;;;;;;5113899;28;20181;-71
2022/06/01 10:27:55;;;;;;;8.10;7.77;;;;;;;15.17;77.29;65775.69;5114512;28;20230;-71
2022/06/01 10:30:32;;;;;;;8.33;7.93;;;;;;;14.90;79.54;65738.91;5114102;28;20241;-71
2022/06/01 10:33:09;;;;;;;10.00;7.47;;;;;;;15.03;77.29;65758.06;5114041;28;20177;-71
2022/06/01 10:35:47;;;;;;;6.17;6.07;;;;;;;;;;5113846;28;20165;-71
2022/06/01 10:38:30;;;;;;;6.97;6.77;;;;;;;14.63;78.35;65714.66;5113730;28;20652;-71
2022/06/01 10:41:00;;;;;;;6.67;6.47;;;;;;;;;;5113997;28;20208;-71
2022/06/01 10:43:34;;;;;;;6.97;6.73;;;;;;;;;;5114312;28;20205;-71
2022/06/01 10:46:28;;;;;;;8.37;7.80;;;;;;;14.61;77.24;65711.88;5113983;28;20178;-70
2022/06/01 10:49:15;;;;;;;7.40;7.13;;;;;;;14.76;80.06;65728.56;5113945;28;20630;-71
2022/06/01 10:51:43;;;;;;;8.10;7.37;;;;;;;14.91;78.73;65744.69;5095440;28;20224;-72
2022/06/01 10:54:31;;;;;;;6.93;6.70;;;;;;;;;;5113688;28;20200;-71
2022/06/01 10:56:58;;;;;;;6.80;6.57;;;;;;;;;;5114105;28;20268;-70
2022/06/01 10:59:25;;;;;;;5.57;5.47;;;;;;;;;;5115312;28;20185;-70
2022/06/01 11:02:00;;;;;;;5.77;5.67;;;;;;;;;;5117597;28;20213;-71
2022/06/01 11:04:30;;;;;;;6.60;6.40;;;;;;;;;;5117666;28;20185;-71
2022/06/01 11:07:00;;;;;;;7.03;6.53;;;;;;;15.14;75.56;65770.84;5118238;28;20207;-71
2022/06/01 11:09:36;;;;;;;6.67;6.57;;;;;;;15.13;76.75;65769.16;5117550;28;20715;-70
2022/06/01 11:12:31;;;;;;;6.07;5.97;;;;;;;15.27;77.52;65786.81;5117868;28;20260;-71
2022/06/01 11:15:03;;;;;;;5.93;5.83;;;;;;;;;;5117882;28;20201;-72
2022/06/01 11:17:42;;;;;;;12.17;6.27;;;;;;;15.68;75.32;65824.63;5117967;28;20543;-71
2022/06/01 11:20:36;;;;;;;7.47;5.93;;;;;;;15.72;73.36;65827.97;5117577;28;20224;-70
2022/06/01 11:23:16;;;;;;;6.37;6.17;;;;;;;16.00;74.03;65859.13;5117509;28;20638;-71
2022/06/01 11:26:09;;;;;;;5.77;5.67;;;;;;;16.03;74.38;65867.72;5117630;28;20184;-71
2022/06/01 11:28:50;;;;;;;5.83;5.73;;;;;;;;;;5117584;28;20582;-71
2022/06/01 11:31:19;;;;;;;5.20;4.90;;;;;;;16.08;73.46;65868.06;5117293;28;20205;-71
2022/06/01 11:33:52;;;;;;;4.70;4.40;;;;;;;;;;5117185;28;20189;-71
2022/06/01 11:36:48;;;;;;;6.53;5.40;;;;;;;15.88;71.47;65851.03;5117475;28;20212;-71
2022/06/01 11:39:33;;;;;;;5.03;4.87;;;;;;;15.89;72.15;65854.75;5117331;28;20571;-71
2022/06/01 11:42:09;;;;;;;4.97;4.67;;;;;;;;;;5111957;28;20545;-71
2022/06/01 11:44:37;;;;;;;4.60;4.40;;;;;;;;;;5109987;28;20214;-71
2022/06/01 11:47:12;;;;;;;6.50;5.83;;;;;;;16.18;68.65;65818.94;5107882;28;20219;-71
2022/06/01 11:49:44;;;;;;;5.27;5.07;;;;;;;;;;5116517;28;20205;-71
2022/06/01 11:52:19;;;;;;;5.00;4.90;;;;;;;16.06;69.40;65865.81;5112960;28;20224;-71
2022/06/01 11:54:54;;;;;;;7.67;4.47;;;;;;;;;;5110301;28;20637;-70
2022/06/01 11:57:25;;;;;;;4.20;4.10;;;;;;;;;;5113174;28;20966;-71
2022/06/01 11:59:52;;;;;;;5.10;4.70;;;;;;;;;;5113961;28;20618;-72
2022/06/01 12:02:40;;;;;;;3.93;3.93;;;;;;;;;;5112261;28;20272;-70
2022/06/01 12:05:09;;;;;;;3.83;3.83;;;;;;;16.86;67.90;65960.59;5112704;28;20207;-71
2022/06/01 12:07:40;;;;;;;4.10;4.00;;;;;;;16.93;67.50;65968.97;5109580;28;20678;-70
2022/06/01 12:10:18;;;;;;;3.73;3.63;;;;;;;;;;5107741;28;20634;-71
2022/06/01 12:12:54;;;;;;;3.30;3.10;;;;;;;17.19;63.18;65996.84;5104533;28;20250;-71
2022/06/01 12:15:29;;;;;;;6.70;3.37;;;;;;;17.19;64.24;65994.22;5113310;28;20212;-73
2022/06/01 12:18:08;;;;;;;3.07;3.07;;;;;;;;;;5114286;28;20678;-72
2022/06/01 12:20:34;;;;;;;3.10;3.03;;;;;;;;;;5113017;28;20217;-71
2022/06/01 12:28:57;;;;;;;4.30;3.90;;;;;;;16.66;62.33;65931.00;5113893;28;20212;-71
2022/06/01 12:31:39;;;;;;;3.27;3.20;;;;;;;16.34;63.27;65896.44;5114990;28;20240;-72
2022/06/01 12:34:15;;;;;;;4.70;4.37;;;;;;;16.16;64.00;65876.97;5094984;28;20244;-72
2022/06/01 12:36:46;;;;;;;4.33;4.23;;;;;;;;;;5111037;28;20222;-73
2022/06/01 12:39:38;;;;;;;6.60;5.20;;;;;;;14.63;79.75;65717.25;5114950;28;20678;-73
2022/06/01 12:42:12;;;;;;;6.13;6.03;;;;;;;14.01;88.27;65655.19;5113173;28;20189;-73
2022/06/01 12:44:41;;;;;;;10.43;9.93;;;;;;;13.58;94.25;65599.56;5114755;28;20197;-72
2022/06/01 12:47:07;;;;;;;7.30;6.90;;;;;;;13.25;95.00;65566.59;5114652;28;20209;-73
2022/06/01 12:49:37;;;;;;;6.67;6.37;;;;;;;13.02;95.44;65538.44;5114631;28;20216;-72
2022/06/01 12:52:08;;;;;;;5.00;5.00;;;;;;;12.84;95.62;65521.59;5114016;28;20253;-72
2022/06/01 12:54:52;;;;;;;4.90;4.70;;;;;;;12.72;95.03;65519.25;5116226;28;20208;-71
2022/06/01 12:57:31;;;;;;;4.27;4.13;;;;;;;12.68;97.45;65496.56;5115736;28;20216;-72
2022/06/01 12:59:57;;;;;;;4.30;4.30;;;;;;;;;;5115217;28;20219;-72
2022/06/01 13:02:23;;;;;;;4.67;4.67;;;;;;;12.62;95.32;65497.72;5113705;28;20224;-71
2022/06/01 13:04:55;;;;;;;4.23;4.23;;;;;;;12.55;95.86;65492.56;5114172;28;20201;-71